Time;durP1;ratioP1;P1;durP2;ratioP2;P2;SDS_P1;SDS_P2;PMS_P1;PMS_P2;Temp;Humidity;BMP_temperature;BMP_pressure;BME280_temperature;BME280_humidity;BME280_pressure;Samples;Min_cycle;Max_cycle;Signal;HPM_P1;HPM_P2
2022/07/27 00:04:55;;;;;;;4.20;2.60;;;;;;;16.94;72.83;99228.19;430767;1270;142804;-62
2022/07/27 00:15:01;;;;;;;2.30;2.00;;;;;;;16.85;73.07;99238.54;430853;1271;145264;-60
2022/07/27 00:25:08;;;;;;;3.50;2.90;;;;;;;16.74;73.29;99243.10;431634;1270;144564;-60
2022/07/27 00:35:14;;;;;;;2.90;1.90;;;;;;;16.62;73.75;99242.52;430998;1271;142862;-61
2022/07/27 00:45:20;;;;;;;4.30;2.40;;;;;;;16.44;73.95;99251.45;432354;1270;146230;-62
2022/07/27 00:55:26;;;;;;;4.30;2.80;;;;;;;16.21;74.48;99261.54;431635;1270;142058;-61
2022/07/27 01:05:35;;;;;;;4.00;1.90;;;;;;;15.92;74.67;99269.42;431751;1271;147674;-61
2022/07/27 01:15:48;;;;;;;6.00;2.50;;;;;;;15.65;74.85;99274.35;432116;1270;145310;-60
2022/07/27 01:25:54;;;;;;;4.20;2.10;;;;;;;15.41;75.35;99278.21;431149;1270;163067;-61
2022/07/27 01:36:00;;;;;;;4.40;1.60;;;;;;;15.22;75.60;99286.10;431730;1270;141880;-60
2022/07/27 01:46:06;;;;;;;4.00;2.50;;;;;;;15.09;76.02;99285.58;431356;1270;141819;-61
2022/07/27 01:56:13;;;;;;;2.50;2.30;;;;;;;14.98;76.27;99285.87;431563;1270;143343;-61
2022/07/27 02:06:19;;;;;;;6.40;4.00;;;;;;;14.84;76.50;99300.92;432207;1270;144234;-59
2022/07/27 02:16:25;;;;;;;4.10;2.70;;;;;;;14.70;76.48;99307.60;432119;1271;141389;-62
2022/07/27 02:26:31;;;;;;;3.40;2.20;;;;;;;14.73;76.39;99308.29;430442;1271;143398;-61
2022/07/27 02:36:36;;;;;;;3.50;2.70;;;;;;;14.83;75.99;99309.49;430975;1271;141594;-61
2022/07/27 02:46:42;;;;;;;4.90;2.90;;;;;;;14.84;75.48;99312.44;430690;1271;142421;-62
2022/07/27 02:56:49;;;;;;;2.20;1.70;;;;;;;14.78;75.38;99321.77;431786;1271;142462;-62
2022/07/27 03:06:54;;;;;;;4.70;1.90;;;;;;;14.87;74.88;99339.67;431958;1271;142163;-61
2022/07/27 03:17:00;;;;;;;7.90;4.20;;;;;;;14.84;74.50;99356.46;431095;1271;142873;-62
2022/07/27 03:27:06;;;;;;;3.80;3.10;;;;;;;14.76;74.40;99368.93;432274;1271;141695;-59
2022/07/27 03:37:14;;;;;;;5.90;3.40;;;;;;;14.85;74.50;99382.30;432507;1271;144586;-61
2022/07/27 03:47:19;;;;;;;3.50;2.90;;;;;;;14.98;74.29;99390.55;432188;1271;142350;-60
2022/07/27 03:57:25;;;;;;;5.90;4.10;;;;;;;15.10;73.75;99396.95;431523;1271;142219;-60
2022/07/27 04:07:31;;;;;;;4.40;3.40;;;;;;;15.21;73.25;99391.42;431383;1271;142265;-61
2022/07/27 04:17:37;;;;;;;5.80;4.40;;;;;;;15.80;73.08;99380.55;430322;1271;142292;-60
2022/07/27 04:28:02;;;;;;;6.50;5.10;;;;;;;22.52;67.60;99379.57;432921;1271;142064;-61
2022/07/27 04:38:07;;;;;;;3.30;2.60;;;;;;;28.22;57.32;99372.70;430694;1271;146267;-60
2022/07/27 04:48:14;;;;;;;4.90;2.30;;;;;;;30.00;49.24;99376.42;431400;1270;141671;-60
2022/07/27 04:58:19;;;;;;;3.30;1.20;;;;;;;28.96;47.56;99375.59;431247;1271;199172;-60
2022/07/27 05:08:25;;;;;;;1.70;1.00;;;;;;;34.20;41.81;99364.84;430968;1270;145391;-60
2022/07/27 05:18:31;;;;;;;4.10;0.80;;;;;;;36.76;36.72;99375.84;431101;1271;140831;-59
2022/07/27 05:28:37;;;;;;;2.90;1.20;;;;;;;39.14;32.86;99383.72;429650;1270;153823;-58
2022/07/27 05:38:43;;;;;;;1.50;1.00;;;;;;;36.06;31.04;99389.52;430278;1271;141336;-60
2022/07/27 05:48:49;;;;;;;3.10;0.90;;;;;;;33.48;31.99;99389.59;434910;1271;141362;-59
2022/07/27 05:58:55;;;;;;;1.20;0.70;;;;;;;36.63;29.08;99394.21;430487;1270;143052;-60
2022/07/27 06:09:01;;;;;;;2.20;0.60;;;;;;;39.95;26.60;99395.39;431752;1270;146981;-61
2022/07/27 06:19:07;;;;;;;3.60;1.00;;;;;;;44.27;23.83;99402.69;431835;1273;141289;-61
2022/07/27 06:29:13;;;;;;;4.10;0.80;;;;;;;45.55;20.77;99402.23;430592;1273;141290;-62
2022/07/27 06:39:20;;;;;;;2.30;1.20;;;;;;;46.38;19.54;99384.45;431315;1271;144236;-63
2022/07/27 06:49:26;;;;;;;2.80;1.60;;;;;;;48.89;17.94;99367.81;431549;1271;141428;-61
2022/07/27 06:59:33;;;;;;;2.50;1.70;;;;;;;50.48;15.89;99370.63;430747;1271;141761;-59
2022/07/27 07:09:47;;;;;;;;;;;;;;;51.71;14.86;99360.95;431354;1270;141204;-60
2022/07/27 07:19:52;;;;;;;3.40;3.20;;;;;;;51.37;13.93;99360.30;432071;1270;127516;-61
2022/07/27 07:29:58;;;;;;;3.80;3.50;;;;;;;51.51;13.75;99370.84;432089;1270;144814;-60
2022/07/27 07:40:10;;;;;;;9.30;4.70;;;;;;;53.39;12.74;99380.86;431672;1270;140921;-61
2022/07/27 07:50:36;;;;;;;6.20;5.90;;;;;;;54.41;12.02;99388.27;431736;1271;141948;-61
2022/07/27 08:00:42;;;;;;;2.80;2.40;;;;;;;51.09;12.36;99392.46;432001;1270;141888;-63
2022/07/27 08:10:48;;;;;;;3.50;1.00;;;;;;;49.01;13.24;99388.30;431867;1270;141281;-62
2022/07/27 08:20:54;;;;;;;5.50;1.20;;;;;;;43.06;15.45;99388.63;431961;1270;140760;-61
2022/07/27 08:31:00;;;;;;;3.50;1.20;;;;;;;37.98;18.19;99390.41;432006;1270;143031;-62
2022/07/27 08:41:22;;;;;;;2.30;0.60;;;;;;;35.21;20.56;99397.95;431139;1270;142856;-61
2022/07/27 08:51:28;;;;;;;3.00;0.80;;;;;;;32.80;22.70;99403.47;431643;1270;141453;-61
2022/07/27 09:01:35;;;;;;;2.40;0.70;;;;;;;30.96;24.73;99399.89;430925;1270;140968;-63
2022/07/27 09:11:41;;;;;;;0.90;0.70;;;;;;;30.07;25.97;99408.83;431650;1270;142325;-58
2022/07/27 09:21:47;;;;;;;4.20;1.00;;;;;;;30.52;26.62;99402.19;431697;1271;143098;-62
2022/07/27 09:31:53;;;;;;;3.90;1.10;;;;;;;30.85;26.63;99402.23;430860;1273;144589;-62
2022/07/27 09:42:01;;;;;;;3.00;1.10;;;;;;;29.81;27.42;99405.98;431882;1270;142317;-61
2022/07/27 09:52:08;;;;;;;1.80;0.50;;;;;;;28.76;28.89;99409.14;432425;1270;142140;-61
2022/07/27 10:02:16;;;;;;;0.90;0.40;;;;;;;29.28;28.77;99407.45;431596;1270;141366;-63
2022/07/27 10:12:22;;;;;;;6.80;1.10;;;;;;;28.73;29.36;99399.83;432230;1270;143011;-61
2022/07/27 10:22:50;;;;;;;3.90;0.90;;;;;;;28.55;29.73;99403.47;432067;1270;141257;-62
2022/07/27 10:32:56;;;;;;;1.40;0.70;;;;;;;26.52;31.56;99412.44;431597;1271;142142;-59
2022/07/27 10:43:16;;;;;;;2.90;0.50;;;;;;;25.04;33.97;99417.06;432578;1270;142311;-61
2022/07/27 10:53:35;;;;;;;1.00;0.40;;;;;;;24.68;35.33;99409.05;431694;1270;145573;-64
2022/07/27 11:04:09;;;;;;;1.20;0.70;;;;;;;24.02;36.47;99407.72;431475;1270;141443;-62
2022/07/27 11:14:16;;;;;;;4.60;0.90;;;;;;;23.56;38.26;99419.35;431094;1270;141357;-61
2022/07/27 11:24:23;;;;;;;2.10;1.00;;;;;;;24.10;38.44;99422.83;431315;1270;351082;-60
2022/07/27 11:34:31;;;;;;;3.30;1.70;;;;;;;24.46;38.03;99427.52;431576;1268;197992;-62
2022/07/27 11:44:41;;;;;;;2.00;0.90;;;;;;;24.28;38.50;99428.91;431492;1270;142165;-61
2022/07/27 11:54:52;;;;;;;2.20;0.80;;;;;;;24.31;38.49;99434.40;431724;1270;140897;-61
2022/07/27 12:04:57;;;;;;;6.90;1.50;;;;;;;24.29;38.92;99430.36;431269;1270;142165;-62
2022/07/27 12:15:17;;;;;;;2.40;0.80;;;;;;;24.79;38.66;99424.91;431699;1270;143669;-60
2022/07/27 12:25:43;;;;;;;1.10;0.90;;;;;;;25.21;38.27;99411.67;431155;1270;142098;-60
2022/07/27 12:35:49;;;;;;;1.00;0.50;;;;;;;25.59;37.91;99406.33;431716;1270;141139;-60
2022/07/27 12:45:56;;;;;;;3.50;0.70;;;;;;;25.84;38.18;99406.82;432127;1270;141698;-62
2022/07/27 12:56:05;;;;;;;2.60;0.80;;;;;;;26.09;37.65;99406.56;431134;1270;142496;-61
2022/07/27 13:06:11;;;;;;;6.40;1.40;;;;;;;25.55;38.10;99405.02;431642;1273;140833;-61
2022/07/27 13:16:18;;;;;;;2.50;0.70;;;;;;;25.19;38.64;99402.41;432044;1270;142178;-62
2022/07/27 13:26:24;;;;;;;4.40;1.00;;;;;;;25.00;39.29;99398.79;431315;1270;141458;-62
2022/07/27 13:36:32;;;;;;;2.60;1.20;;;;;;;24.96;39.31;99395.72;432116;1270;142185;-62
2022/07/27 13:46:38;;;;;;;1.80;1.10;;;;;;;24.69;39.88;99392.63;431062;1270;141803;-62
2022/07/27 13:56:44;;;;;;;2.90;0.90;;;;;;;24.64;40.37;99396.88;431823;1270;142338;-61
2022/07/27 14:06:50;;;;;;;3.00;0.70;;;;;;;24.76;40.22;99390.25;431823;1270;140966;-62
2022/07/27 14:16:56;;;;;;;4.40;1.70;;;;;;;24.76;40.03;99385.30;431119;1270;141487;-62
2022/07/27 14:27:02;;;;;;;2.60;1.00;;;;;;;24.67;40.31;99387.20;431672;1270;141622;-63
2022/07/27 14:37:08;;;;;;;1.30;1.20;;;;;;;24.53;40.39;99383.35;430971;1270;140974;-63
2022/07/27 14:47:14;;;;;;;2.90;1.00;;;;;;;24.49;40.54;99383.90;431836;1271;141032;-61
2022/07/27 14:57:20;;;;;;;2.70;0.90;;;;;;;23.99;40.94;99379.37;432243;1270;141992;-62
2022/07/27 15:07:26;;;;;;;2.00;0.60;;;;;;;23.54;40.86;99374.64;432460;1270;143266;-61
2022/07/27 15:17:33;;;;;;;5.20;1.20;;;;;;;23.44;40.78;99371.23;431361;1270;142053;-61
2022/07/27 15:27:43;;;;;;;5.10;0.90;;;;;;;23.29;40.38;99377.54;432069;1271;141095;-64
2022/07/27 15:37:49;;;;;;;3.80;0.90;;;;;;;23.11;39.68;99382.98;432087;1270;141716;-63
2022/07/27 15:47:59;;;;;;;5.00;1.40;;;;;;;22.94;40.04;99377.52;432617;1270;140343;-63
2022/07/27 15:58:06;;;;;;;1.80;0.70;;;;;;;22.98;39.88;99373.25;432943;1270;140954;-63
2022/07/27 16:08:13;;;;;;;1.40;1.10;;;;;;;22.64;39.70;99382.60;431951;1270;141174;-62
2022/07/27 16:18:19;;;;;;;3.70;1.20;;;;;;;22.02;39.80;99385.15;432163;1271;142082;-62
2022/07/27 16:28:27;;;;;;;1.30;0.90;;;;;;;21.79;40.21;99389.75;431386;1273;142394;-59
2022/07/27 16:38:33;;;;;;;1.70;0.40;;;;;;;21.58;40.06;99388.21;431723;1270;142558;-62
2022/07/27 16:48:40;;;;;;;5.00;1.20;;;;;;;21.45;40.22;99383.95;431388;1270;142040;-62
2022/07/27 16:58:50;;;;;;;3.10;0.70;;;;;;;21.49;40.29;99382.80;436678;1271;143140;-62
2022/07/27 17:08:56;;;;;;;4.10;1.20;;;;;;;21.45;40.20;99376.52;437146;1269;144124;-61
2022/07/27 17:19:02;;;;;;;2.80;0.80;;;;;;;21.45;40.23;99373.98;432150;1270;141895;-62
2022/07/27 17:29:08;;;;;;;6.00;1.70;;;;;;;21.28;39.93;99364.67;431141;1270;141486;-62
2022/07/27 17:39:15;;;;;;;9.40;2.20;;;;;;;21.09;40.25;99376.27;431942;1270;144809;-60
2022/07/27 17:49:21;;;;;;;4.40;1.10;;;;;;;20.88;41.33;99391.33;432171;1270;141260;-61
2022/07/27 17:59:27;;;;;;;3.30;1.10;;;;;;;20.63;41.57;99391.14;432088;1270;141553;-61
2022/07/27 18:09:43;;;;;;;1.60;0.90;;;;;;;20.76;41.85;99384.64;432604;1270;141784;-63
2022/07/27 18:19:49;;;;;;;2.70;0.90;;;;;;;20.57;41.68;99389.16;431169;1271;141132;-62
2022/07/27 18:29:55;;;;;;;6.90;2.10;;;;;;;20.11;42.74;99405.29;432445;1270;140031;-62
2022/07/27 18:40:02;;;;;;;6.20;3.10;;;;;;;19.70;43.82;99413.48;432806;1271;141687;-60
2022/07/27 18:50:09;;;;;;;3.90;1.60;;;;;;;19.37;45.09;99436.95;430744;1270;143100;-62
2022/07/27 19:00:16;;;;;;;5.10;2.60;;;;;;;19.06;45.83;99450.56;431148;1271;142036;-61
2022/07/27 19:10:23;;;;;;;5.40;1.40;;;;;;;18.77;46.74;99462.45;431396;1270;141150;-60
2022/07/27 19:20:29;;;;;;;3.20;2.00;;;;;;;18.35;47.68;99473.77;431164;1270;141476;-61
2022/07/27 19:30:37;;;;;;;4.20;1.70;;;;;;;17.83;48.91;99493.92;432673;1270;152811;-63
2022/07/27 19:40:44;;;;;;;2.50;1.30;;;;;;;17.24;50.43;99510.99;433318;1270;141776;-61
2022/07/27 19:50:50;;;;;;;5.60;1.40;;;;;;;16.78;51.83;99528.77;431027;1271;140497;-63
2022/07/27 20:00:57;;;;;;;5.70;1.60;;;;;;;16.54;53.00;99540.65;430932;1270;141654;-59
2022/07/27 20:11:03;;;;;;;2.80;1.80;;;;;;;16.43;53.46;99553.05;430726;1270;141841;-60
2022/07/27 20:21:09;;;;;;;1.80;1.30;;;;;;;16.37;54.19;99561.88;430894;1270;145202;-60
2022/07/27 20:31:28;;;;;;;2.80;1.50;;;;;;;16.36;54.87;99566.77;431635;1270;142388;-62
2022/07/27 20:41:34;;;;;;;4.50;1.70;;;;;;;16.32;55.25;99577.17;432052;1270;141333;-62
2022/07/27 20:51:40;;;;;;;6.30;1.20;;;;;;;16.32;55.25;99592.36;431336;1271;140604;-62
2022/07/27 21:01:46;;;;;;;2.60;1.90;;;;;;;16.19;54.98;99599.86;431253;1271;141643;-62
2022/07/27 21:11:52;;;;;;;5.40;3.40;;;;;;;15.93;54.25;99604.34;431516;1271;141721;-61
2022/07/27 21:21:58;;;;;;;9.60;5.50;;;;;;;15.76;52.64;99608.29;431299;1271;140442;-61
2022/07/27 21:32:05;;;;;;;9.10;4.20;;;;;;;15.59;52.14;99613.73;430479;1271;142687;-62
2022/07/27 21:42:11;;;;;;;6.70;4.30;;;;;;;15.36;52.30;99625.59;431613;1271;141240;-61
2022/07/27 21:52:16;;;;;;;8.90;4.80;;;;;;;15.03;53.29;99639.70;431888;1271;143478;-62
2022/07/27 22:02:22;;;;;;;5.10;3.50;;;;;;;14.77;53.55;99647.98;431039;1271;146586;-61
2022/07/27 22:12:33;;;;;;;3.60;2.00;;;;;;;14.60;53.78;99656.52;431580;1271;140814;-68
2022/07/27 22:22:39;;;;;;;3.90;1.40;;;;;;;14.56;53.86;99657.18;430212;1274;141887;-62
2022/07/27 22:32:44;;;;;;;4.10;2.80;;;;;;;14.79;53.42;99665.76;431397;1271;141783;-62
2022/07/27 22:42:50;;;;;;;7.80;3.20;;;;;;;14.58;55.03;99680.42;431512;1271;144581;-62
2022/07/27 22:52:57;;;;;;;9.80;4.30;;;;;;;14.28;55.33;99685.95;430763;1271;142715;-61
2022/07/27 23:03:03;;;;;;;6.50;3.40;;;;;;;14.02;55.88;99689.52;431522;1270;142516;-62
2022/07/27 23:13:09;;;;;;;8.30;3.80;;;;;;;13.74;56.57;99700.63;431012;1270;140798;-61
2022/07/27 23:23:14;;;;;;;5.00;3.00;;;;;;;13.65;56.37;99704.23;430249;1271;331785;-62
2022/07/27 23:33:21;;;;;;;4.40;2.50;;;;;;;13.63;56.75;99713.22;431205;1271;141950;-63
2022/07/27 23:43:28;;;;;;;6.30;2.70;;;;;;;13.39;56.88;99725.88;431135;1270;143976;-61
2022/07/27 23:53:33;;;;;;;4.10;2.40;;;;;;;13.02;57.26;99718.67;430678;1271;143169;-61
